ADDS TAF Board (Experimental) INFO

IDs: Format: Expanded Condensed

Updated at: 1118 UTC 22 Dec 2014

KEWR - Newark Intl, NJ, US

Issued at 0931 UTC 22 Dec 2014
Time1051Z22/12Z22/13Z22/14Z22/15Z22/16Z22/17Z22/18Z22/19Z22/20Z22/21Z22/22Z22/23Z23/00Z
TypeOBSPRVLPRVLPRVLPRVLPRVLPRVLPRVLPRVLPRVLPRVLPRVLPRVLPRVL
VIS10>6>6>6>6666666666
CIG13151515151010101088888
CoverOVCOVCOVCOVCOVCOVCOVCOVCOVCOVCOVCOVCOVCOVC
FltCatMVFRMVFRMVFRMVFRMVFRMVFRMVFRMVFRMVFRIFRIFRIFRIFRIFR
WX-----------RA-RA-RA-RA-RA-RA-RA-RA-RA
WDir2040404040505050505050505050
WSpd76666666666666
WGst----------------------------
R04/22
XWnd1-1-1-1-1-2-2-2-2-2-2-2-2-2
HWnd76666555555555
R11/29
XWnd75555444444444
HWnd23333444444444
Raw TAF
KEWR 220931Z 2210/2312 02006KT P6SM SCT015 OVC035
  TEMPO 2210/2212 BKN015 OVC025
  FM221200 04006KT P6SM BKN015 OVC025
  FM221600 05006KT 6SM -RA BKN010 OVC020
  FM222000 05006KT 6SM -RA OVC008
  FM230600 05006KT 3SM -RA BR OVC004


Raw METAR
KEWR 221051Z 02007KT 10SM BKN013 OVC020 02/M01 A3032 RMK AO2 SLP266 T00171011
KEWR 221048Z 01007KT 10SM BKN013 OVC020 02/M01 A3032 RMK AO2

TAF Board Legend

Hazard VFR MVFR IFR LIFR
Visibility (sm) >5 3≤X≤5 1≤X<3 <1
Ceiling (100 ft) >30 10≤X≤30 5≤X<10 <5
Wind Speed (kt) <10 10≤X<20 20≤X<30 ≥30
Wind Gust (kt) <15 15≤X<25 25≤X<35 ≥35
Weather No Wx Reported VCTS,-TS,-FZRA TS,FZRA +TS,+FZRA


Page loaded:  11:18 UTC  |   03:18 AM Pacific  |   04:18 AM Mountain  |   05:18 AM Central  |   06:18 AM Eastern

 

ADVISORIES

FORECASTS

FORECASTS

OBSERVATIONS

USER TOOLS

ABOUT US